Terminal Aerodrome Forecast
Issued by NWS

Home | Current Version | Previous Version | Text Only | Print | Product List | Glossary On
Versions: 1 2 3 4 5 6 7 8 9 10 11 12 13 14 15 16 17 18 19 20 21 22 23 24
000
FTUS41 KGYX 250526
TAFHIE
TAF
KHIE 250526Z 2506/2606 VRB03KT 4SM -SHSN BKN008 OVC030
     FM250900 36005KT P6SM BKN015 OVC025
     FM251700 33004KT P6SM BKN025 OVC050
     FM252300 33004KT P6SM FEW025 OVC100=

USA.gov is the U.S. government's official web portal to all federal, state and local government web resources and services.